Time;durP1;ratioP1;P1;durP2;ratioP2;P2;SDS_P1;SDS_P2;PMS_P1;PMS_P2;Temp;Humidity;BMP_temperature;BMP_pressure;BME280_temperature;BME280_humidity;BME280_pressure;Samples;Min_cycle;Max_cycle;Signal;HPM_P1;HPM_P2
2021/03/05 00:01:00;;;;;;;19.40;12.07;;;;;;;5.32;89.41;96161.53;4906882;29;20032;-80
2021/03/05 00:03:26;;;;;;;23.33;12.63;;;;;;;5.38;89.84;96160.22;4903780;29;20039;-79
2021/03/05 00:05:53;;;;;;;22.23;14.27;;;;;;;5.30;90.32;96160.00;4893942;29;20032;-80
2021/03/05 00:08:19;;;;;;;19.03;12.73;;;;;;;5.33;90.99;96160.63;4906252;29;20044;-80
2021/03/05 00:10:46;;;;;;;24.87;15.50;;;;;;;5.25;91.39;96156.97;4906282;29;20463;-80
2021/03/05 00:13:13;;;;;;;22.03;15.13;;;;;;;5.28;91.19;96165.38;4905885;29;20052;-80
2021/03/05 00:15:41;;;;;;;25.07;15.33;;;;;;;5.22;91.02;96162.44;4905110;29;20516;-80
2021/03/05 00:18:07;;;;;;;26.53;15.33;;;;;;;5.33;90.75;96165.81;4905159;29;20043;-80
2021/03/05 00:20:39;;;;;;;24.73;14.83;;;;;;;5.29;90.42;96164.41;4890322;29;20342;-82
2021/03/05 00:23:04;;;;;;;23.43;15.87;;;;;;;5.38;90.35;96166.25;4888557;29;20036;-81
2021/03/05 00:25:30;;;;;;;25.07;15.57;;;;;;;5.24;90.84;96168.38;4910110;29;20027;-80
2021/03/05 00:27:56;;;;;;;26.30;16.07;;;;;;;5.26;90.95;96172.47;4910016;29;20127;-80
2021/03/05 00:30:23;;;;;;;27.70;16.60;;;;;;;5.32;90.41;96161.53;4897192;29;20036;-80
2021/03/05 00:32:49;;;;;;;26.67;16.27;;;;;;;5.28;90.82;96157.56;4912260;29;20032;-81
2021/03/05 00:35:16;;;;;;;26.87;16.57;;;;;;;5.25;90.79;96163.03;4910769;29;20043;-80
2021/03/05 00:37:43;;;;;;;28.20;16.47;;;;;;;5.11;92.13;96163.34;4914895;29;20028;-80
2021/03/05 00:40:15;;;;;;;23.57;15.80;;;;;;;5.18;91.40;96167.91;4895227;29;20423;-80
2021/03/05 00:42:43;;;;;;;26.17;16.57;;;;;;;5.35;91.20;96169.13;4921891;29;20100;-80
2021/03/05 00:45:10;;;;;;;25.13;16.93;;;;;;;5.36;91.23;96173.38;4906932;29;20032;-80
2021/03/05 00:47:37;;;;;;;27.70;15.97;;;;;;;5.35;90.33;96173.50;4918258;29;20064;-80
2021/03/05 00:50:05;;;;;;;28.47;17.80;;;;;;;5.41;90.98;96171.22;4901246;29;20036;-80
2021/03/05 00:52:32;;;;;;;24.60;16.43;;;;;;;5.32;90.72;96178.97;4908561;29;20032;-81
2021/03/05 00:54:58;;;;;;;25.77;15.87;;;;;;;5.29;90.93;96171.41;4892824;29;20467;-80
2021/03/05 00:57:26;;;;;;;27.33;17.00;;;;;;;5.24;91.25;96170.97;4887404;29;20028;-79
2021/03/05 00:59:52;;;;;;;26.40;17.27;;;;;;;5.25;91.40;96177.84;4906461;29;20027;-79
2021/03/05 01:02:18;;;;;;;29.77;16.27;;;;;;;5.19;91.28;96173.94;4902297;29;20032;-79
2021/03/05 01:04:43;;;;;;;24.10;13.90;;;;;;;5.13;90.77;96180.53;4907207;29;20047;-79
2021/03/05 01:07:09;;;;;;;20.97;13.80;;;;;;;5.10;91.83;96179.94;4902214;29;20032;-79
2021/03/05 01:09:35;;;;;;;20.23;13.07;;;;;;;5.17;91.06;96183.69;4917876;29;20046;-82
2021/03/05 01:12:05;;;;;;;16.80;10.63;;;;;;;5.07;90.54;96185.41;4904377;29;20043;-79
2021/03/05 01:14:30;;;;;;;16.60;10.23;;;;;;;5.04;89.57;96191.69;4895950;29;20402;-81
2021/03/05 01:16:56;;;;;;;18.03;11.33;;;;;;;5.06;90.22;96188.94;4895065;29;20028;-79
2021/03/05 01:19:22;;;;;;;15.63;9.73;;;;;;;5.03;89.51;96184.00;4903487;29;20107;-80
2021/03/05 01:21:48;;;;;;;17.20;11.13;;;;;;;5.04;90.58;96186.50;4910615;29;20079;-80
2021/03/05 01:24:13;;;;;;;17.13;11.00;;;;;;;5.19;90.10;96189.59;4909516;29;20470;-80
2021/03/05 01:26:40;;;;;;;16.73;10.50;;;;;;;4.97;90.19;96191.38;4926324;29;20046;-79
2021/03/05 01:29:08;;;;;;;15.60;10.37;;;;;;;4.92;90.64;96196.13;4925516;29;20043;-81
2021/03/05 01:31:34;;;;;;;14.70;9.93;;;;;;;4.92;91.06;96187.47;4902129;29;20704;-79
2021/03/05 01:34:00;;;;;;;17.90;11.53;;;;;;;4.92;91.17;96184.88;4903055;29;20068;-80
2021/03/05 01:36:27;;;;;;;18.30;12.77;;;;;;;4.93;91.60;96187.38;4911000;29;20127;-79
2021/03/05 01:38:53;;;;;;;17.53;11.77;;;;;;;4.87;90.90;96185.25;4904956;29;20039;-80
2021/03/05 01:41:18;;;;;;;15.80;10.80;;;;;;;4.91;90.33;96189.25;4903786;29;20463;-81
2021/03/05 01:43:44;;;;;;;16.40;11.53;;;;;;;4.79;91.14;96187.66;4917325;29;20039;-81
2021/03/05 01:46:12;;;;;;;18.70;11.60;;;;;;;4.88;91.55;96196.50;4905228;29;20095;-80
2021/03/05 01:48:38;;;;;;;16.20;10.33;;;;;;;4.99;90.62;96193.84;4907140;29;20047;-79
2021/03/05 01:51:14;;;;;;;17.53;11.20;;;;;;;4.83;90.49;96194.28;4900169;29;21000;-82
2021/03/05 01:53:41;;;;;;;19.67;11.80;;;;;;;4.82;91.19;96203.03;4911646;29;20484;-79
2021/03/05 01:56:08;;;;;;;15.93;10.97;;;;;;;4.93;90.98;96204.78;4903409;29;20463;-81
2021/03/05 01:58:35;;;;;;;15.73;10.83;;;;;;;4.88;90.46;96199.13;4924452;29;20731;-80
2021/03/05 02:01:08;;;;;;;16.17;10.43;;;;;;;4.82;89.80;96200.44;4904671;29;20122;-80
2021/03/05 02:03:37;;;;;;;17.93;12.43;;;;;;;4.80;89.30;96198.91;4900233;29;20039;-79
2021/03/05 02:06:04;;;;;;;21.13;13.83;;;;;;;4.64;90.20;96196.72;4898346;29;20028;-79
2021/03/05 02:08:30;;;;;;;20.37;14.20;;;;;;;4.73;90.06;96193.38;4909006;29;20035;-80
2021/03/05 02:10:56;;;;;;;19.87;14.03;;;;;;;4.57;90.36;96198.16;4911291;29;21143;-78
2021/03/05 02:13:23;;;;;;;20.23;14.50;;;;;;;4.59;90.33;96202.28;4916409;29;21150;-81
2021/03/05 02:15:49;;;;;;;19.67;14.73;;;;;;;4.49;90.70;96203.97;4906885;29;20039;-81
2021/03/05 02:18:30;;;;;;;21.20;14.67;;;;;;;4.57;91.35;96205.97;4929660;29;20951;-81
2021/03/05 02:21:18;;;;;;;21.87;15.47;;;;;;;4.43;91.57;96207.91;4927650;29;20561;-80
2021/03/05 02:24:25;;;;;;;22.27;14.60;;;;;;;4.58;91.67;96210.22;4910412;29;20472;-79
2021/03/05 02:27:09;;;;;;;20.60;13.97;;;;;;;4.44;90.93;96219.16;4875008;29;20511;-79
2021/03/05 02:30:02;;;;;;;17.13;12.40;;;;;;;4.38;91.13;96224.84;4900443;29;20555;-80
2021/03/05 02:32:50;;;;;;;15.25;11.20;;;;;;;4.31;90.45;96229.69;4899884;29;20044;-81
2021/03/05 02:35:17;;;;;;;16.53;11.20;;;;;;;4.15;91.18;96230.06;4902407;29;20042;-80
2021/03/05 02:37:46;;;;;;;14.03;9.93;;;;;;;4.10;91.50;96240.03;4902180;29;21199;-79
2021/03/05 02:40:19;;;;;;;13.83;9.47;;;;;;;4.05;91.45;96230.91;4888740;29;21141;-79
2021/03/05 02:43:07;;;;;;;12.45;8.52;;;;;;;4.04;91.14;96244.88;4907790;29;20551;-83
2021/03/05 02:45:35;;;;;;;13.93;9.00;;;;;;;4.03;90.46;96244.03;4921935;29;20541;-81
2021/03/05 02:48:09;;;;;;;10.33;6.83;;;;;;;3.95;89.65;96246.41;4923456;29;20912;-80
2021/03/05 02:50:39;;;;;;;8.97;5.77;;;;;;;3.81;89.79;96247.47;4914489;29;20440;-79
2021/03/05 02:53:08;;;;;;;8.67;5.80;;;;;;;3.80;90.24;96251.00;4915644;29;20912;-79
2021/03/05 02:55:36;;;;;;;10.10;6.07;;;;;;;3.71;90.07;96255.13;4904402;29;20446;-79
2021/03/05 02:58:03;;;;;;;8.43;5.50;;;;;;;3.62;89.99;96253.25;4911398;29;21031;-79
2021/03/05 03:00:29;;;;;;;9.73;5.97;;;;;;;3.75;90.21;96259.16;4907974;29;20453;-81
2021/03/05 03:02:56;;;;;;;10.47;6.57;;;;;;;3.64;90.35;96255.72;4894868;29;20535;-79
2021/03/05 03:05:25;;;;;;;10.17;6.37;;;;;;;3.70;89.53;96260.47;4915025;29;20455;-81
2021/03/05 03:07:51;;;;;;;9.87;6.50;;;;;;;3.57;88.99;96267.53;4917330;29;20444;-82
2021/03/05 03:10:21;;;;;;;10.00;6.63;;;;;;;3.62;89.13;96268.00;4907120;29;20455;-79
2021/03/05 03:12:51;;;;;;;9.57;6.17;;;;;;;3.34;88.89;96283.06;4915717;29;20459;-80
2021/03/05 03:15:17;;;;;;;8.83;5.57;;;;;;;3.22;89.87;96291.75;4904556;29;20545;-79
2021/03/05 03:17:44;;;;;;;10.50;6.57;;;;;;;3.26;89.92;96294.03;4897725;29;20459;-80
2021/03/05 03:20:17;;;;;;;9.10;5.70;;;;;;;3.05;88.97;96298.19;4921015;29;20457;-81
2021/03/05 03:22:43;;;;;;;9.82;6.53;;;;;;;3.13;89.38;96292.44;4902689;29;20480;-81
2021/03/05 03:25:09;;;;;;;11.03;6.57;;;;;;;3.02;89.11;96296.66;4926577;29;20047;-79
2021/03/05 03:27:35;;;;;;;11.33;6.33;;;;;;;3.10;89.25;96309.09;4907639;29;20067;-80
2021/03/05 03:30:01;;;;;;;9.40;6.00;;;;;;;2.95;89.47;96305.84;4921038;29;21040;-80
2021/03/05 03:32:28;;;;;;;9.20;5.73;;;;;;;2.84;89.81;96310.94;4890464;29;20059;-78
2021/03/05 03:34:55;;;;;;;9.80;6.43;;;;;;;2.62;89.69;96316.84;4897911;29;20539;-79
2021/03/05 03:37:21;;;;;;;10.20;6.37;;;;;;;2.56;90.52;96318.13;4915950;29;20459;-81
2021/03/05 03:39:47;;;;;;;11.00;6.57;;;;;;;2.80;90.29;96328.53;4904536;29;20503;-79
2021/03/05 03:42:13;;;;;;;10.67;6.60;;;;;;;2.77;90.76;96325.31;4902965;29;21033;-78
2021/03/05 03:44:38;;;;;;;11.07;6.30;;;;;;;2.79;90.20;96342.47;4915567;29;20481;-79
2021/03/05 03:47:04;;;;;;;10.73;6.47;;;;;;;2.78;89.58;96337.34;4908479;29;20032;-79
2021/03/05 03:49:35;;;;;;;10.33;6.63;;;;;;;2.66;89.92;96336.47;4905298;29;20040;-78
2021/03/05 03:52:09;;;;;;;10.67;6.97;;;;;;;2.70;90.27;96342.28;4890241;29;20038;-79
2021/03/05 03:54:37;;;;;;;10.05;6.20;;;;;;;2.74;90.42;96338.53;4904624;29;20460;-78
2021/03/05 03:57:06;;;;;;;10.13;6.63;;;;;;;2.59;90.22;96348.22;4905976;29;20020;-80
2021/03/05 03:59:34;;;;;;;10.13;5.97;;;;;;;2.60;90.14;96342.91;4907744;29;20487;-79
2021/03/05 04:02:01;;;;;;;10.97;6.93;;;;;;;2.62;90.26;96344.59;4908741;29;20526;-79
2021/03/05 04:04:31;;;;;;;10.83;6.93;;;;;;;2.49;90.21;96353.22;4896242;29;20810;-81
2021/03/05 04:06:58;;;;;;;11.63;7.00;;;;;;;2.51;90.11;96364.31;4903984;29;20495;-79
2021/03/05 04:09:25;;;;;;;9.53;6.30;;;;;;;2.45;90.43;96364.78;4901133;29;20460;-80
2021/03/05 04:11:53;;;;;;;13.90;7.43;;;;;;;2.58;90.54;96372.50;4910594;29;20567;-79
2021/03/05 04:14:21;;;;;;;11.13;6.90;;;;;;;2.49;90.26;96367.97;4915352;29;20933;-80
2021/03/05 04:16:47;;;;;;;10.27;6.70;;;;;;;2.44;90.56;96376.06;4909164;29;20547;-79
2021/03/05 04:19:13;;;;;;;12.53;7.37;;;;;;;2.49;90.15;96371.41;4908617;29;20467;-82
2021/03/05 04:21:39;;;;;;;11.27;7.17;;;;;;;2.56;90.43;96372.63;4905732;29;20040;-80
2021/03/05 04:24:05;;;;;;;10.23;6.80;;;;;;;2.57;90.19;96370.84;4916478;29;20486;-80
2021/03/05 04:26:31;;;;;;;10.67;7.17;;;;;;;2.59;90.70;96376.78;4893913;29;20559;-79
2021/03/05 04:28:57;;;;;;;10.27;6.37;;;;;;;2.56;89.97;96379.59;4913303;29;20114;-79
2021/03/05 04:31:23;;;;;;;9.73;5.57;;;;;;;2.36;90.55;96380.97;4911312;29;20487;-81
2021/03/05 04:33:48;;;;;;;8.63;4.70;;;;;;;2.27;90.28;96385.00;4911127;29;20040;-80
2021/03/05 04:36:14;;;;;;;6.73;4.40;;;;;;;2.08;89.04;96385.44;4911731;29;20028;-79
2021/03/05 04:38:40;;;;;;;7.37;3.90;;;;;;;2.24;90.23;96392.16;4909160;29;20066;-79
2021/03/05 04:41:05;;;;;;;6.77;4.03;;;;;;;2.31;90.06;96394.28;4922332;29;20392;-79
2021/03/05 04:43:31;;;;;;;5.67;3.43;;;;;;;2.09;88.86;96394.06;4908224;29;20043;-80
2021/03/05 04:45:57;;;;;;;7.70;3.93;;;;;;;2.06;88.50;96389.88;4905950;29;20024;-79
2021/03/05 04:48:22;;;;;;;6.60;3.37;;;;;;;2.01;89.04;96389.38;4886499;29;20493;-78
2021/03/05 04:50:49;;;;;;;6.93;3.63;;;;;;;2.09;88.57;96394.88;4912046;29;20496;-79
2021/03/05 04:53:15;;;;;;;7.13;3.80;;;;;;;1.99;89.71;96404.22;4914705;29;20038;-80
2021/03/05 04:55:41;;;;;;;7.00;3.73;;;;;;;1.81;89.58;96401.09;4913145;29;20556;-79
2021/03/05 04:58:07;;;;;;;7.83;4.53;;;;;;;1.82;88.83;96404.50;4896152;29;20043;-78
2021/03/05 05:00:33;;;;;;;7.57;4.43;;;;;;;1.83;89.40;96409.56;4907847;29;20039;-80
2021/03/05 05:02:59;;;;;;;7.03;4.33;;;;;;;1.98;88.70;96406.88;4918191;29;20763;-79
2021/03/05 05:05:24;;;;;;;6.90;4.17;;;;;;;1.76;87.73;96410.91;4904270;29;20047;-79
2021/03/05 05:07:50;;;;;;;7.10;3.90;;;;;;;1.78;88.97;96411.66;4905265;29;20060;-79
2021/03/05 05:10:16;;;;;;;6.80;3.77;;;;;;;1.87;88.71;96417.97;4910585;29;20040;-82
2021/03/05 05:12:42;;;;;;;8.17;4.17;;;;;;;1.94;87.97;96415.81;4907430;29;20036;-79
2021/03/05 05:15:08;;;;;;;7.20;4.37;;;;;;;1.89;87.61;96422.13;4914721;29;20553;-80
2021/03/05 05:17:34;;;;;;;7.40;3.87;;;;;;;1.77;87.55;96419.50;4903260;29;20032;-79
2021/03/05 05:20:00;;;;;;;8.03;4.50;;;;;;;1.79;88.47;96421.09;4927950;29;20467;-79
2021/03/05 05:22:26;;;;;;;8.97;4.60;;;;;;;1.87;88.03;96423.16;4927676;29;20067;-78
2021/03/05 05:24:51;;;;;;;8.27;4.53;;;;;;;1.83;87.56;96426.91;4907331;29;20039;-79
2021/03/05 05:27:17;;;;;;;8.60;5.00;;;;;;;1.60;87.51;96436.16;4913608;29;20558;-79
2021/03/05 05:29:43;;;;;;;9.47;5.83;;;;;;;1.67;88.58;96439.19;4921706;29;20051;-80
2021/03/05 05:32:08;;;;;;;9.70;4.70;;;;;;;1.47;88.57;96443.91;4924647;29;20060;-79
2021/03/05 05:34:34;;;;;;;10.70;6.07;;;;;;;1.60;88.11;96441.34;4911015;29;20725;-79
2021/03/05 05:37:00;;;;;;;9.20;5.13;;;;;;;1.68;87.65;96436.53;4906521;29;20024;-79
2021/03/05 05:39:25;;;;;;;9.53;5.37;;;;;;;1.52;87.82;96444.44;4886269;29;20044;-79
2021/03/05 05:41:56;;;;;;;9.97;5.43;;;;;;;1.58;88.48;96444.06;4887099;29;20426;-79
2021/03/05 05:44:22;;;;;;;10.03;5.50;;;;;;;1.51;87.96;96445.38;4926766;29;20039;-81
2021/03/05 05:46:49;;;;;;;9.33;5.20;;;;;;;1.40;88.19;96447.81;4928980;29;21031;-79
2021/03/05 05:49:17;;;;;;;9.57;5.80;;;;;;;1.41;88.11;96446.91;4906087;29;20040;-79
2021/03/05 05:51:45;;;;;;;10.87;5.87;;;;;;;1.39;88.37;96451.34;4907881;29;20803;-79
2021/03/05 05:54:15;;;;;;;10.90;6.17;;;;;;;1.51;88.15;96450.56;4900926;29;20468;-78
2021/03/05 05:56:41;;;;;;;12.00;5.97;;;;;;;1.29;88.22;96445.91;4907949;29;20966;-79
2021/03/05 05:59:07;;;;;;;10.67;6.63;;;;;;;1.45;87.76;96455.31;4903653;29;20464;-79
2021/03/05 06:01:34;;;;;;;10.40;5.80;;;;;;;1.34;88.76;96458.56;4915257;29;20495;-78
2021/03/05 06:04:04;;;;;;;11.63;6.87;;;;;;;1.42;88.52;96458.94;4908303;29;20472;-78
2021/03/05 06:06:31;;;;;;;13.70;8.57;;;;;;;1.49;88.46;96461.97;4907666;29;21032;-79
2021/03/05 06:08:59;;;;;;;14.67;9.37;;;;;;;1.44;88.85;96469.19;4905464;29;20539;-79
2021/03/05 06:11:37;;;;;;;10.70;5.47;;;;;;;1.48;89.26;96471.50;4897040;29;21226;-79
2021/03/05 06:14:08;;;;;;;10.27;6.17;;;;;;;1.51;88.61;96470.44;4907915;29;21016;-81
2021/03/05 06:16:35;;;;;;;8.93;5.40;;;;;;;1.36;88.52;96467.91;4926143;29;20524;-79
2021/03/05 06:19:17;;;;;;;11.27;6.30;;;;;;;1.44;88.97;96475.19;4918695;29;20451;-81
2021/03/05 06:21:44;;;;;;;11.90;6.67;;;;;;;1.37;89.32;96481.69;4904472;29;20486;-79
2021/03/05 06:24:10;;;;;;;11.30;6.47;;;;;;;1.47;89.19;96480.19;4888162;29;20861;-79
2021/03/05 06:26:59;;;;;;;10.30;6.13;;;;;;;1.53;89.24;96484.97;4927715;29;20496;-79
2021/03/05 06:29:38;;;;;;;11.13;6.07;;;;;;;1.50;88.54;96485.16;4917471;29;20044;-79
2021/03/05 06:32:04;;;;;;;9.70;5.67;;;;;;;1.42;89.23;96490.03;4924615;29;20472;-82
2021/03/05 06:34:52;;;;;;;10.80;6.40;;;;;;;1.45;89.00;96492.41;4901374;29;21222;-79
2021/03/05 06:37:23;;;;;;;11.97;6.87;;;;;;;1.67;88.55;96493.63;4904267;29;20480;-79
2021/03/05 06:40:00;;;;;;;14.50;7.13;;;;;;;1.54;88.42;96502.22;4909387;29;20462;-79
2021/03/05 06:42:26;;;;;;;10.70;6.60;;;;;;;1.53;88.33;96505.72;4890850;29;20486;-81
2021/03/05 06:44:53;;;;;;;11.57;6.57;;;;;;;1.60;89.03;96506.97;4915749;29;20617;-80
2021/03/05 06:47:20;;;;;;;10.70;6.73;;;;;;;1.46;88.13;96511.38;4920519;29;20036;-80
2021/03/05 06:49:48;;;;;;;11.37;6.33;;;;;;;1.55;89.04;96511.66;4907038;29;20562;-79
2021/03/05 06:52:16;;;;;;;11.10;6.37;;;;;;;1.62;89.51;96510.31;4912359;29;20468;-80
2021/03/05 06:54:43;;;;;;;12.43;6.87;;;;;;;1.68;88.68;96518.63;4906380;29;20464;-80
2021/03/05 06:57:11;;;;;;;11.73;6.53;;;;;;;1.47;88.83;96524.25;4907989;29;20482;-80
2021/03/05 06:59:38;;;;;;;12.07;7.10;;;;;;;1.56;88.68;96528.84;4907103;29;20468;-81
2021/03/05 07:02:14;;;;;;;12.30;6.83;;;;;;;1.71;88.57;96524.47;4901607;29;21052;-81
2021/03/05 07:04:51;;;;;;;13.33;7.33;;;;;;;1.73;87.63;96530.38;4901736;29;20494;-80
2021/03/05 07:07:22;;;;;;;13.90;7.10;;;;;;;1.76;88.49;96537.13;4923169;29;20476;-81
2021/03/05 07:09:51;;;;;;;13.63;8.03;;;;;;;1.70;88.27;96540.09;4907559;29;20578;-80
2021/03/05 07:12:26;;;;;;;13.40;7.80;;;;;;;1.79;88.26;96542.13;4887042;29;21001;-79
2021/03/05 07:15:05;;;;;;;13.03;7.40;;;;;;;1.61;87.52;96557.06;4920364;29;20460;-80
2021/03/05 07:17:31;;;;;;;14.77;7.60;;;;;;;1.83;87.88;96557.38;4909678;29;21330;-80
2021/03/05 07:20:00;;;;;;;14.20;7.30;;;;;;;1.82;87.82;96547.94;4904676;29;20523;-80
2021/03/05 07:22:29;;;;;;;14.87;8.67;;;;;;;1.73;87.82;96558.06;4911659;29;20050;-81
2021/03/05 07:24:56;;;;;;;18.30;10.43;;;;;;;1.81;88.27;96559.25;4910073;29;20554;-81
2021/03/05 07:27:28;;;;;;;18.83;10.87;;;;;;;1.72;88.46;96571.97;4906376;29;20527;-80
2021/03/05 07:30:00;;;;;;;13.33;7.83;;;;;;;1.90;88.17;96578.56;4909051;29;20471;-80
2021/03/05 07:32:40;;;;;;;12.67;7.30;;;;;;;1.88;87.97;96578.69;4921935;29;20563;-81
2021/03/05 07:35:13;;;;;;;12.47;7.43;;;;;;;1.77;88.15;96580.28;4915913;29;20504;-82
2021/03/05 07:37:49;;;;;;;13.55;7.82;;;;;;;1.49;87.92;96588.94;4914619;29;20479;-81
2021/03/05 07:40:17;;;;;;;13.97;8.10;;;;;;;1.53;88.56;96588.66;4917952;29;20044;-80
2021/03/05 07:42:44;;;;;;;14.10;8.60;;;;;;;1.62;88.32;96593.28;4926195;29;20440;-79
2021/03/05 07:45:12;;;;;;;14.83;7.53;;;;;;;1.60;88.71;96589.09;4905464;29;20526;-80
2021/03/05 07:47:41;;;;;;;14.53;7.70;;;;;;;1.73;88.12;96595.19;4893948;29;20469;-81
2021/03/05 07:50:09;;;;;;;15.87;9.43;;;;;;;1.70;88.44;96599.75;4910641;29;20549;-79
2021/03/05 07:52:36;;;;;;;13.90;7.73;;;;;;;1.78;88.38;96600.09;4909298;29;20463;-81
2021/03/05 07:55:03;;;;;;;14.77;8.13;;;;;;;1.74;88.68;96596.03;4896439;29;20639;-78
2021/03/05 07:57:29;;;;;;;14.93;9.13;;;;;;;1.83;89.14;96601.47;4899422;29;20452;-80
2021/03/05 08:00:00;;;;;;;15.13;8.00;;;;;;;1.74;87.83;96608.97;4915529;29;21315;-78
2021/03/05 08:02:52;;;;;;;15.13;8.83;;;;;;;1.81;87.91;96608.53;4890146;29;20044;-79
2021/03/05 08:05:40;;;;;;;15.73;8.30;;;;;;;1.99;89.08;96613.47;4916061;29;20494;-78
2021/03/05 08:08:23;;;;;;;15.43;8.30;;;;;;;2.05;88.58;96613.09;4910882;29;21069;-77
2021/03/05 08:10:53;;;;;;;16.00;8.83;;;;;;;1.83;87.38;96608.41;4919009;29;20487;-78
2021/03/05 08:16:29;;;;;;;15.27;8.40;;;;;;;2.17;87.69;96625.25;4924764;29;20535;-78
2021/03/05 08:19:04;;;;;;;14.93;8.87;;;;;;;2.30;87.98;96635.69;4909529;29;20482;-78
2021/03/05 08:21:52;;;;;;;16.80;9.07;;;;;;;2.37;88.12;96642.16;4906066;29;20463;-78
2021/03/05 08:24:29;;;;;;;17.40;9.37;;;;;;;2.39;87.10;96645.50;4908657;29;20440;-78
2021/03/05 08:26:58;;;;;;;15.77;8.77;;;;;;;2.33;85.73;96636.31;4933036;29;20504;-79
2021/03/05 08:29:57;;;;;;;18.07;9.30;;;;;;;2.25;86.03;96630.81;4932662;29;20463;-78
2021/03/05 08:32:33;;;;;;;15.90;8.47;;;;;;;2.26;86.91;96642.03;4927903;29;20468;-80
2021/03/05 08:35:12;;;;;;;18.23;10.37;;;;;;;2.27;86.09;96647.09;4918472;29;20460;-79
2021/03/05 08:37:45;;;;;;;15.67;9.43;;;;;;;2.46;86.36;96648.53;4905153;29;21096;-78
2021/03/05 08:40:11;;;;;;;11.90;6.78;;;;;;;2.57;85.15;96641.69;4906787;29;21546;-79
2021/03/05 08:42:50;;;;;;;17.73;9.90;;;;;;;2.59;85.61;96650.22;4931393;29;20047;-79
2021/03/05 08:45:18;;;;;;;15.60;8.53;;;;;;;2.66;86.38;96648.06;4924996;29;20048;-78
2021/03/05 08:47:47;;;;;;;13.47;7.97;;;;;;;2.52;85.16;96646.38;4908844;29;20495;-79
2021/03/05 08:50:16;;;;;;;14.33;8.37;;;;;;;2.68;85.50;96653.97;4896843;29;20551;-79
2021/03/05 08:52:44;;;;;;;27.40;15.13;;;;;;;2.67;85.31;96659.28;4910970;29;20484;-83
2021/03/05 08:55:12;;;;;;;46.70;23.97;;;;;;;2.48;85.45;96657.88;4914171;29;20472;-79
2021/03/05 08:57:41;;;;;;;52.90;27.43;;;;;;;2.58;85.95;96665.88;4903375;29;20468;-78
2021/03/05 09:00:09;;;;;;;21.00;11.37;;;;;;;2.58;85.41;96666.75;4918143;29;20455;-81
2021/03/05 09:02:35;;;;;;;22.33;12.73;;;;;;;2.62;85.26;96667.38;4904235;29;20591;-79
2021/03/05 09:05:01;;;;;;;19.70;11.53;;;;;;;2.76;85.19;96664.69;4908686;29;20542;-78
2021/03/05 09:07:28;;;;;;;27.40;18.30;;;;;;;2.59;85.09;96662.38;4926691;29;20036;-79
2021/03/05 09:09:54;;;;;;;16.40;9.90;;;;;;;2.55;84.48;96673.91;4926997;29;20161;-79
2021/03/05 09:12:24;;;;;;;19.20;13.60;;;;;;;2.63;84.81;96665.59;4908470;29;20495;-80
2021/03/05 09:15:03;;;;;;;16.43;10.23;;;;;;;2.55;85.04;96672.13;4906781;29;20092;-80
2021/03/05 09:17:29;;;;;;;15.53;9.20;;;;;;;2.29;84.92;96676.38;4912023;29;20491;-79
2021/03/05 09:19:55;;;;;;;15.37;9.10;;;;;;;2.37;86.05;96675.88;4925213;29;20503;-79
2021/03/05 09:22:26;;;;;;;17.40;10.07;;;;;;;2.33;86.49;96680.44;4927079;29;20511;-81
2021/03/05 09:24:59;;;;;;;15.67;8.97;;;;;;;2.50;85.75;96684.56;4908382;29;20818;-78
2021/03/05 09:27:31;;;;;;;13.80;7.78;;;;;;;2.49;85.00;96688.09;4928638;29;20480;-81
2021/03/05 09:29:59;;;;;;;15.43;8.83;;;;;;;2.47;85.94;96689.13;4894766;29;20123;-80
2021/03/05 09:32:27;;;;;;;18.00;9.73;;;;;;;2.65;85.61;96681.91;4895643;29;20459;-78
2021/03/05 09:34:58;;;;;;;14.20;8.83;;;;;;;2.57;84.21;96696.22;4932666;29;20475;-79
2021/03/05 09:37:29;;;;;;;19.60;10.50;;;;;;;2.80;84.63;96688.72;4904487;29;20548;-79
2021/03/05 09:39:58;;;;;;;16.70;9.40;;;;;;;2.64;84.54;96691.47;4921298;29;20547;-78
2021/03/05 09:42:49;;;;;;;16.70;10.23;;;;;;;2.79;84.12;96694.84;4923998;29;20534;-81
2021/03/05 09:45:37;;;;;;;25.47;11.27;;;;;;;2.75;85.02;96699.41;4916615;29;20459;-79
2021/03/05 09:48:04;;;;;;;17.57;10.60;;;;;;;3.09;84.59;96702.38;4911860;29;21057;-79
2021/03/05 09:50:31;;;;;;;15.47;8.67;;;;;;;2.95;82.96;96703.31;4912648;29;20456;-79
2021/03/05 09:52:57;;;;;;;15.13;9.03;;;;;;;2.76;83.96;96710.63;4909574;29;21173;-79
2021/03/05 09:55:27;;;;;;;17.07;10.43;;;;;;;2.59;84.79;96704.75;4918397;29;20471;-79
2021/03/05 09:57:53;;;;;;;18.60;10.33;;;;;;;2.56;84.24;96709.31;4915943;29;20491;-80
2021/03/05 10:00:30;;;;;;;15.23;9.00;;;;;;;2.77;83.96;96702.72;4911561;29;20448;-78
2021/03/05 10:03:10;;;;;;;18.10;10.67;;;;;;;2.65;84.11;96713.06;4921998;29;20620;-79
2021/03/05 10:05:39;;;;;;;20.30;11.30;;;;;;;3.00;84.03;96698.63;4906651;29;20660;-79
2021/03/05 10:08:16;;;;;;;25.30;14.83;;;;;;;2.95;83.39;96707.63;4916053;29;20571;-79
2021/03/05 10:11:06;;;;;;;18.57;11.13;;;;;;;3.13;84.77;96703.00;4911191;29;20476;-80
2021/03/05 10:13:54;;;;;;;19.20;11.57;;;;;;;3.29;83.57;96708.84;4920085;29;20490;-79
2021/03/05 10:16:31;;;;;;;17.33;10.50;;;;;;;3.42;82.16;96714.03;4905676;29;20460;-80
2021/03/05 10:19:13;;;;;;;17.53;10.43;;;;;;;3.62;81.89;96712.69;4913280;29;20546;-79
2021/03/05 10:21:44;;;;;;;16.67;9.87;;;;;;;3.31;81.46;96713.00;4927158;29;20485;-79
2021/03/05 10:24:11;;;;;;;16.83;11.03;;;;;;;3.32;80.57;96711.25;4914536;29;21017;-79
2021/03/05 10:26:37;;;;;;;17.87;10.27;;;;;;;3.46;79.26;96718.94;4908785;29;20472;-79
2021/03/05 10:29:06;;;;;;;14.37;8.60;;;;;;;3.22;80.34;96718.84;4901544;29;20467;-78
2021/03/05 10:32:00;;;;;;;16.57;9.77;;;;;;;3.07;79.95;96719.84;4917791;29;20476;-79
2021/03/05 10:34:32;;;;;;;25.70;13.32;;;;;;;3.12;80.26;96729.91;4892005;29;20531;-80
2021/03/05 10:37:00;;;;;;;17.10;10.53;;;;;;;3.22;79.89;96733.56;4920338;29;20577;-79
2021/03/05 10:39:31;;;;;;;16.20;9.73;;;;;;;3.07;79.64;96735.41;4911241;29;20468;-79
2021/03/05 10:42:03;;;;;;;14.53;8.90;;;;;;;3.04;79.08;96723.47;4923409;29;20504;-79
2021/03/05 10:44:30;;;;;;;16.07;9.00;;;;;;;2.95;80.40;96739.66;4921758;29;20468;-79
2021/03/05 10:47:02;;;;;;;13.73;8.47;;;;;;;3.16;78.82;96736.59;4914195;29;20499;-79
2021/03/05 10:49:30;;;;;;;15.27;8.73;;;;;;;2.97;80.05;96742.97;4894562;29;20540;-81
2021/03/05 10:51:57;;;;;;;18.83;10.57;;;;;;;3.01;79.59;96744.44;4889064;29;20468;-79
2021/03/05 10:54:22;;;;;;;16.43;9.43;;;;;;;2.86;79.91;96753.25;4906660;29;20543;-80
2021/03/05 10:56:49;;;;;;;16.57;9.33;;;;;;;2.94;80.92;96750.97;4923269;29;20487;-79
2021/03/05 10:59:17;;;;;;;16.83;8.80;;;;;;;3.16;79.56;96750.41;4918609;29;20038;-79
2021/03/05 11:01:44;;;;;;;14.07;9.07;;;;;;;3.28;79.71;96756.56;4908920;29;20473;-79
2021/03/05 11:04:10;;;;;;;14.67;7.97;;;;;;;3.16;79.49;96758.22;4904447;29;20495;-80
2021/03/05 11:06:36;;;;;;;14.87;8.57;;;;;;;3.14;79.36;96761.84;4901907;29;20491;-80
2021/03/05 11:09:06;;;;;;;15.60;8.70;;;;;;;3.21;78.67;96763.09;4917386;29;20456;-81
2021/03/05 11:11:33;;;;;;;15.90;8.70;;;;;;;3.37;79.40;96763.75;4922520;29;20088;-79
2021/03/05 11:13:59;;;;;;;13.67;8.57;;;;;;;3.18;78.24;96764.13;4908442;29;20460;-81
2021/03/05 11:16:31;;;;;;;15.63;8.73;;;;;;;3.38;78.96;96765.41;4922288;29;20472;-80
2021/03/05 11:18:57;;;;;;;15.80;9.33;;;;;;;2.96;78.47;96769.06;4924439;29;20460;-81
2021/03/05 11:21:23;;;;;;;16.10;9.33;;;;;;;2.96;79.44;96775.09;4927716;29;20984;-79
2021/03/05 11:23:49;;;;;;;17.43;9.67;;;;;;;3.09;79.55;96774.31;4890382;29;20040;-80
2021/03/05 11:26:16;;;;;;;17.77;9.63;;;;;;;2.96;78.95;96776.88;4895096;29;20480;-79
2021/03/05 11:28:42;;;;;;;16.67;9.37;;;;;;;3.03;80.59;96776.38;4921576;29;20456;-80
2021/03/05 11:31:09;;;;;;;16.67;9.37;;;;;;;3.27;80.67;96778.31;4911599;29;20459;-80
2021/03/05 11:33:35;;;;;;;16.07;9.57;;;;;;;3.21;80.03;96773.50;4920662;29;20050;-80
2021/03/05 11:36:01;;;;;;;17.73;10.30;;;;;;;3.30;79.97;96784.13;4917329;29;20484;-80
2021/03/05 11:38:28;;;;;;;16.17;8.83;;;;;;;3.15;81.10;96785.13;4920828;29;20056;-80
2021/03/05 11:40:55;;;;;;;16.00;9.83;;;;;;;3.24;79.66;96783.69;4920105;29;20410;-81
2021/03/05 11:43:21;;;;;;;17.40;9.93;;;;;;;3.51;80.68;96779.25;4892523;29;21019;-80
2021/03/05 11:45:47;;;;;;;17.73;10.33;;;;;;;3.40;80.24;96786.97;4903142;29;20464;-80